Terminal Aerodrome Forecast
Issued by NWS Indianapolis, IN

Current Version | Previous Version | Text Only | Print | Product List | Glossary On
Versions: 1 2 3 4 5 6 7 8 9 10 11 12 13 14 15 16 17 18 19 20 21 22 23 24
000
FTUS43 KIND 292325
TAFIND
TAF
KIND 292325Z 3000/3106 21006KT P6SM VCSH BKN050 BKN100
     FM300600 20004KT 6SM BR BKN040
     FM301300 21007KT P6SM BKN035=

USA.gov is the U.S. government's official web portal to all federal, state and local government web resources and services.